sensor_id;sensor_type;location;lat;lon;timestamp;P1;durP1;ratioP1;P2;durP2;ratioP2
2610;SDS011;5612;51.134;17.058;2023-09-19T00:00:47;3.47;;;2.90;;
2610;SDS011;5612;51.134;17.058;2023-09-19T00:03:16;4.90;;;2.97;;
2610;SDS011;5612;51.134;17.058;2023-09-19T00:05:45;4.03;;;3.33;;
2610;SDS011;5612;51.134;17.058;2023-09-19T00:08:15;3.23;;;3.03;;
2610;SDS011;5612;51.134;17.058;2023-09-19T00:10:45;5.00;;;4.00;;
2610;SDS011;5612;51.134;17.058;2023-09-19T00:13:15;4.13;;;3.00;;
2610;SDS011;5612;51.134;17.058;2023-09-19T00:15:46;7.60;;;3.20;;
2610;SDS011;5612;51.134;17.058;2023-09-19T00:18:17;3.50;;;3.20;;
2610;SDS011;5612;51.134;17.058;2023-09-19T00:20:49;4.70;;;2.77;;
2610;SDS011;5612;51.134;17.058;2023-09-19T00:23:19;3.17;;;2.83;;
2610;SDS011;5612;51.134;17.058;2023-09-19T00:25:50;3.40;;;2.80;;
2610;SDS011;5612;51.134;17.058;2023-09-19T00:28:19;4.40;;;2.40;;
2610;SDS011;5612;51.134;17.058;2023-09-19T00:30:48;3.33;;;2.27;;
2610;SDS011;5612;51.134;17.058;2023-09-19T00:33:18;3.00;;;2.30;;
2610;SDS011;5612;51.134;17.058;2023-09-19T00:35:47;2.50;;;2.30;;
2610;SDS011;5612;51.134;17.058;2023-09-19T00:38:16;4.57;;;2.90;;
2610;SDS011;5612;51.134;17.058;2023-09-19T00:40:50;2.43;;;2.23;;
2610;SDS011;5612;51.134;17.058;2023-09-19T00:43:19;3.80;;;2.20;;
2610;SDS011;5612;51.134;17.058;2023-09-19T00:45:52;4.33;;;2.23;;
2610;SDS011;5612;51.134;17.058;2023-09-19T00:48:22;3.40;;;2.57;;
2610;SDS011;5612;51.134;17.058;2023-09-19T00:50:56;3.27;;;2.30;;
2610;SDS011;5612;51.134;17.058;2023-09-19T00:53:31;2.30;;;2.10;;
2610;SDS011;5612;51.134;17.058;2023-09-19T00:56:03;2.53;;;2.20;;
2610;SDS011;5612;51.134;17.058;2023-09-19T00:58:34;5.20;;;3.10;;
2610;SDS011;5612;51.134;17.058;2023-09-19T01:01:05;2.80;;;2.30;;
2610;SDS011;5612;51.134;17.058;2023-09-19T01:03:35;4.20;;;2.47;;
2610;SDS011;5612;51.134;17.058;2023-09-19T01:06:05;6.57;;;2.20;;
2610;SDS011;5612;51.134;17.058;2023-09-19T01:08:34;3.43;;;2.13;;
2610;SDS011;5612;51.134;17.058;2023-09-19T01:11:08;2.50;;;2.10;;
2610;SDS011;5612;51.134;17.058;2023-09-19T01:13:46;3.33;;;2.50;;
2610;SDS011;5612;51.134;17.058;2023-09-19T01:16:26;2.70;;;2.33;;
2610;SDS011;5612;51.134;17.058;2023-09-19T01:19:07;4.50;;;2.53;;
2610;SDS011;5612;51.134;17.058;2023-09-19T01:21:57;2.80;;;2.40;;
2610;SDS011;5612;51.134;17.058;2023-09-19T01:24:48;2.00;;;1.90;;
2610;SDS011;5612;51.134;17.058;2023-09-19T01:27:47;2.40;;;2.23;;
2610;SDS011;5612;51.134;17.058;2023-09-19T01:30:39;1.97;;;1.77;;
2610;SDS011;5612;51.134;17.058;2023-09-19T01:33:11;2.30;;;2.10;;
2610;SDS011;5612;51.134;17.058;2023-09-19T01:35:41;3.63;;;2.20;;
2610;SDS011;5612;51.134;17.058;2023-09-19T01:38:10;2.40;;;2.20;;
2610;SDS011;5612;51.134;17.058;2023-09-19T01:40:41;2.43;;;2.23;;
2610;SDS011;5612;51.134;17.058;2023-09-19T01:43:12;2.50;;;2.30;;
2610;SDS011;5612;51.134;17.058;2023-09-19T01:45:51;2.70;;;1.93;;
2610;SDS011;5612;51.134;17.058;2023-09-19T01:48:32;2.77;;;2.00;;
2610;SDS011;5612;51.134;17.058;2023-09-19T01:51:07;2.13;;;2.03;;
2610;SDS011;5612;51.134;17.058;2023-09-19T01:53:40;4.03;;;2.40;;
2610;SDS011;5612;51.134;17.058;2023-09-19T01:56:16;2.37;;;2.17;;
2610;SDS011;5612;51.134;17.058;2023-09-19T01:58:53;2.83;;;2.20;;
2610;SDS011;5612;51.134;17.058;2023-09-19T02:01:25;2.60;;;2.40;;
2610;SDS011;5612;51.134;17.058;2023-09-19T02:03:56;2.93;;;2.63;;
2610;SDS011;5612;51.134;17.058;2023-09-19T02:06:26;2.40;;;2.30;;
2610;SDS011;5612;51.134;17.058;2023-09-19T02:08:55;2.07;;;1.97;;
2610;SDS011;5612;51.134;17.058;2023-09-19T02:11:24;1.93;;;1.80;;
2610;SDS011;5612;51.134;17.058;2023-09-19T02:13:53;3.03;;;2.20;;
2610;SDS011;5612;51.134;17.058;2023-09-19T02:16:22;3.20;;;2.87;;
2610;SDS011;5612;51.134;17.058;2023-09-19T02:18:53;2.70;;;2.50;;
2610;SDS011;5612;51.134;17.058;2023-09-19T02:21:21;4.40;;;2.10;;
2610;SDS011;5612;51.134;17.058;2023-09-19T02:23:50;2.83;;;2.53;;
2610;SDS011;5612;51.134;17.058;2023-09-19T02:26:19;2.53;;;2.20;;
2610;SDS011;5612;51.134;17.058;2023-09-19T02:28:48;2.60;;;2.40;;
2610;SDS011;5612;51.134;17.058;2023-09-19T02:31:17;3.90;;;2.60;;
2610;SDS011;5612;51.134;17.058;2023-09-19T02:33:46;4.67;;;3.37;;
2610;SDS011;5612;51.134;17.058;2023-09-19T02:36:16;3.20;;;2.40;;
2610;SDS011;5612;51.134;17.058;2023-09-19T02:38:45;2.70;;;2.50;;
2610;SDS011;5612;51.134;17.058;2023-09-19T02:41:14;2.57;;;2.40;;
2610;SDS011;5612;51.134;17.058;2023-09-19T02:43:43;3.90;;;2.30;;
2610;SDS011;5612;51.134;17.058;2023-09-19T02:46:12;2.30;;;2.20;;
2610;SDS011;5612;51.134;17.058;2023-09-19T02:48:41;2.40;;;1.93;;
2610;SDS011;5612;51.134;17.058;2023-09-19T02:51:10;2.17;;;1.97;;
2610;SDS011;5612;51.134;17.058;2023-09-19T02:53:42;2.60;;;2.40;;
2610;SDS011;5612;51.134;17.058;2023-09-19T02:56:10;4.10;;;2.33;;
2610;SDS011;5612;51.134;17.058;2023-09-19T02:58:40;5.60;;;2.70;;
2610;SDS011;5612;51.134;17.058;2023-09-19T03:01:09;2.23;;;2.03;;
2610;SDS011;5612;51.134;17.058;2023-09-19T03:03:39;1.93;;;1.83;;
2610;SDS011;5612;51.134;17.058;2023-09-19T03:06:08;4.40;;;2.20;;
2610;SDS011;5612;51.134;17.058;2023-09-19T03:08:37;2.77;;;2.20;;
2610;SDS011;5612;51.134;17.058;2023-09-19T03:11:08;2.40;;;2.23;;
2610;SDS011;5612;51.134;17.058;2023-09-19T03:13:38;2.47;;;2.10;;
2610;SDS011;5612;51.134;17.058;2023-09-19T03:16:09;2.80;;;2.50;;
2610;SDS011;5612;51.134;17.058;2023-09-19T03:18:38;3.07;;;2.53;;
2610;SDS011;5612;51.134;17.058;2023-09-19T03:21:07;2.60;;;2.33;;
2610;SDS011;5612;51.134;17.058;2023-09-19T03:23:38;2.27;;;2.07;;
2610;SDS011;5612;51.134;17.058;2023-09-19T03:26:09;5.70;;;2.43;;
2610;SDS011;5612;51.134;17.058;2023-09-19T03:28:39;2.70;;;2.17;;
2610;SDS011;5612;51.134;17.058;2023-09-19T03:31:08;2.90;;;2.37;;
2610;SDS011;5612;51.134;17.058;2023-09-19T03:33:38;3.07;;;1.90;;
2610;SDS011;5612;51.134;17.058;2023-09-19T03:36:07;2.10;;;1.90;;
2610;SDS011;5612;51.134;17.058;2023-09-19T03:38:36;2.20;;;2.10;;
2610;SDS011;5612;51.134;17.058;2023-09-19T03:41:05;3.90;;;2.97;;
2610;SDS011;5612;51.134;17.058;2023-09-19T03:43:35;8.87;;;2.60;;
2610;SDS011;5612;51.134;17.058;2023-09-19T03:46:04;3.43;;;2.80;;
2610;SDS011;5612;51.134;17.058;2023-09-19T03:48:34;4.70;;;4.20;;
2610;SDS011;5612;51.134;17.058;2023-09-19T03:51:03;6.50;;;4.80;;
2610;SDS011;5612;51.134;17.058;2023-09-19T03:53:32;5.27;;;4.30;;
2610;SDS011;5612;51.134;17.058;2023-09-19T03:56:01;5.33;;;4.60;;
2610;SDS011;5612;51.134;17.058;2023-09-19T03:58:30;5.93;;;5.17;;
2610;SDS011;5612;51.134;17.058;2023-09-19T04:01:02;8.37;;;4.60;;
2610;SDS011;5612;51.134;17.058;2023-09-19T04:03:33;5.70;;;5.20;;
2610;SDS011;5612;51.134;17.058;2023-09-19T04:06:13;4.63;;;4.23;;
2610;SDS011;5612;51.134;17.058;2023-09-19T04:08:42;4.70;;;3.60;;
2610;SDS011;5612;51.134;17.058;2023-09-19T04:11:13;4.90;;;3.90;;
2610;SDS011;5612;51.134;17.058;2023-09-19T04:13:42;5.20;;;3.90;;
2610;SDS011;5612;51.134;17.058;2023-09-19T04:16:12;4.10;;;3.30;;
2610;SDS011;5612;51.134;17.058;2023-09-19T04:18:41;4.43;;;2.93;;
2610;SDS011;5612;51.134;17.058;2023-09-19T04:21:09;4.50;;;3.30;;
2610;SDS011;5612;51.134;17.058;2023-09-19T04:23:38;5.77;;;3.20;;
2610;SDS011;5612;51.134;17.058;2023-09-19T04:26:07;3.83;;;2.67;;
2610;SDS011;5612;51.134;17.058;2023-09-19T04:28:36;4.80;;;2.97;;
2610;SDS011;5612;51.134;17.058;2023-09-19T04:31:06;2.87;;;2.67;;
2610;SDS011;5612;51.134;17.058;2023-09-19T04:33:38;3.40;;;2.50;;
2610;SDS011;5612;51.134;17.058;2023-09-19T04:36:08;5.40;;;3.43;;
2610;SDS011;5612;51.134;17.058;2023-09-19T04:38:57;3.20;;;2.90;;
2610;SDS011;5612;51.134;17.058;2023-09-19T04:41:26;2.90;;;2.70;;
2610;SDS011;5612;51.134;17.058;2023-09-19T04:43:55;3.17;;;2.97;;
2610;SDS011;5612;51.134;17.058;2023-09-19T04:46:25;3.63;;;3.30;;
2610;SDS011;5612;51.134;17.058;2023-09-19T04:48:55;4.20;;;3.07;;
2610;SDS011;5612;51.134;17.058;2023-09-19T04:51:24;4.27;;;3.87;;
2610;SDS011;5612;51.134;17.058;2023-09-19T04:53:56;4.10;;;3.60;;
2610;SDS011;5612;51.134;17.058;2023-09-19T04:56:25;4.33;;;3.57;;
2610;SDS011;5612;51.134;17.058;2023-09-19T04:58:55;4.47;;;3.90;;
2610;SDS011;5612;51.134;17.058;2023-09-19T05:01:25;3.97;;;3.63;;
2610;SDS011;5612;51.134;17.058;2023-09-19T05:03:55;5.40;;;3.50;;
2610;SDS011;5612;51.134;17.058;2023-09-19T05:06:24;6.80;;;3.20;;
2610;SDS011;5612;51.134;17.058;2023-09-19T05:08:54;6.13;;;4.23;;
2610;SDS011;5612;51.134;17.058;2023-09-19T05:11:23;4.57;;;3.60;;
2610;SDS011;5612;51.134;17.058;2023-09-19T05:13:52;3.40;;;3.17;;
2610;SDS011;5612;51.134;17.058;2023-09-19T05:16:22;3.73;;;3.17;;
2610;SDS011;5612;51.134;17.058;2023-09-19T05:18:59;4.30;;;3.53;;
2610;SDS011;5612;51.134;17.058;2023-09-19T05:21:30;7.50;;;4.00;;
2610;SDS011;5612;51.134;17.058;2023-09-19T05:24:00;3.70;;;3.10;;
2610;SDS011;5612;51.134;17.058;2023-09-19T05:26:29;3.90;;;3.33;;
2610;SDS011;5612;51.134;17.058;2023-09-19T05:28:58;5.47;;;3.10;;
2610;SDS011;5612;51.134;17.058;2023-09-19T05:31:27;4.37;;;3.60;;
2610;SDS011;5612;51.134;17.058;2023-09-19T05:33:59;5.67;;;3.43;;
2610;SDS011;5612;51.134;17.058;2023-09-19T05:36:29;5.07;;;3.83;;
2610;SDS011;5612;51.134;17.058;2023-09-19T05:38:58;5.77;;;3.20;;
2610;SDS011;5612;51.134;17.058;2023-09-19T05:41:28;4.30;;;3.90;;
2610;SDS011;5612;51.134;17.058;2023-09-19T05:43:57;5.23;;;3.60;;
2610;SDS011;5612;51.134;17.058;2023-09-19T05:46:30;3.63;;;3.33;;
2610;SDS011;5612;51.134;17.058;2023-09-19T05:49:15;3.37;;;2.93;;
2610;SDS011;5612;51.134;17.058;2023-09-19T05:52:01;4.53;;;3.20;;
2610;SDS011;5612;51.134;17.058;2023-09-19T05:54:31;5.00;;;3.20;;
2610;SDS011;5612;51.134;17.058;2023-09-19T05:57:01;7.20;;;4.17;;
2610;SDS011;5612;51.134;17.058;2023-09-19T05:59:31;4.60;;;3.20;;
2610;SDS011;5612;51.134;17.058;2023-09-19T06:02:00;6.37;;;4.27;;
2610;SDS011;5612;51.134;17.058;2023-09-19T06:04:33;5.00;;;3.20;;
2610;SDS011;5612;51.134;17.058;2023-09-19T06:07:03;5.03;;;3.37;;
2610;SDS011;5612;51.134;17.058;2023-09-19T06:09:32;4.80;;;3.57;;
2610;SDS011;5612;51.134;17.058;2023-09-19T06:12:01;7.63;;;3.70;;
2610;SDS011;5612;51.134;17.058;2023-09-19T06:14:31;3.70;;;3.27;;
2610;SDS011;5612;51.134;17.058;2023-09-19T06:17:00;2.93;;;2.60;;
2610;SDS011;5612;51.134;17.058;2023-09-19T06:19:29;5.03;;;3.47;;
2610;SDS011;5612;51.134;17.058;2023-09-19T06:21:59;3.33;;;2.87;;
2610;SDS011;5612;51.134;17.058;2023-09-19T06:24:30;5.40;;;3.10;;
2610;SDS011;5612;51.134;17.058;2023-09-19T06:26:59;2.77;;;2.57;;
2610;SDS011;5612;51.134;17.058;2023-09-19T06:29:29;3.00;;;2.67;;
2610;SDS011;5612;51.134;17.058;2023-09-19T06:31:57;4.27;;;2.40;;
2610;SDS011;5612;51.134;17.058;2023-09-19T06:34:27;2.47;;;2.37;;
2610;SDS011;5612;51.134;17.058;2023-09-19T06:36:56;5.07;;;2.90;;
2610;SDS011;5612;51.134;17.058;2023-09-19T06:39:27;4.90;;;3.07;;
2610;SDS011;5612;51.134;17.058;2023-09-19T06:41:57;3.97;;;2.60;;
2610;SDS011;5612;51.134;17.058;2023-09-19T06:44:28;3.63;;;2.67;;
2610;SDS011;5612;51.134;17.058;2023-09-19T06:46:58;4.77;;;2.73;;
2610;SDS011;5612;51.134;17.058;2023-09-19T06:49:27;3.27;;;2.70;;
2610;SDS011;5612;51.134;17.058;2023-09-19T06:51:57;5.37;;;2.83;;
2610;SDS011;5612;51.134;17.058;2023-09-19T06:54:29;4.30;;;2.67;;
2610;SDS011;5612;51.134;17.058;2023-09-19T06:56:58;2.87;;;2.63;;
2610;SDS011;5612;51.134;17.058;2023-09-19T06:59:27;3.07;;;2.63;;
2610;SDS011;5612;51.134;17.058;2023-09-19T07:01:56;5.57;;;3.00;;
2610;SDS011;5612;51.134;17.058;2023-09-19T07:04:26;3.00;;;2.60;;
2610;SDS011;5612;51.134;17.058;2023-09-19T07:06:55;3.70;;;2.60;;
2610;SDS011;5612;51.134;17.058;2023-09-19T07:09:24;2.90;;;2.70;;
2610;SDS011;5612;51.134;17.058;2023-09-19T07:11:55;3.43;;;2.87;;
2610;SDS011;5612;51.134;17.058;2023-09-19T07:14:24;5.20;;;2.80;;
2610;SDS011;5612;51.134;17.058;2023-09-19T07:16:53;4.23;;;2.47;;
2610;SDS011;5612;51.134;17.058;2023-09-19T07:19:22;2.80;;;2.17;;
2610;SDS011;5612;51.134;17.058;2023-09-19T07:21:51;4.50;;;3.50;;
2610;SDS011;5612;51.134;17.058;2023-09-19T07:24:20;2.90;;;2.67;;
2610;SDS011;5612;51.134;17.058;2023-09-19T07:26:50;2.53;;;2.40;;
2610;SDS011;5612;51.134;17.058;2023-09-19T07:29:21;4.07;;;2.57;;
2610;SDS011;5612;51.134;17.058;2023-09-19T07:31:50;3.50;;;2.40;;
2610;SDS011;5612;51.134;17.058;2023-09-19T07:34:20;4.53;;;2.13;;
2610;SDS011;5612;51.134;17.058;2023-09-19T07:36:50;2.43;;;2.20;;
2610;SDS011;5612;51.134;17.058;2023-09-19T07:39:19;3.73;;;2.70;;
2610;SDS011;5612;51.134;17.058;2023-09-19T07:41:49;2.77;;;2.07;;
2610;SDS011;5612;51.134;17.058;2023-09-19T07:44:18;2.90;;;2.20;;
2610;SDS011;5612;51.134;17.058;2023-09-19T07:46:48;1.97;;;1.80;;
2610;SDS011;5612;51.134;17.058;2023-09-19T07:49:19;3.67;;;1.80;;
2610;SDS011;5612;51.134;17.058;2023-09-19T07:51:49;2.30;;;2.10;;
2610;SDS011;5612;51.134;17.058;2023-09-19T07:54:19;2.40;;;2.00;;
2610;SDS011;5612;51.134;17.058;2023-09-19T07:56:48;2.57;;;2.00;;
2610;SDS011;5612;51.134;17.058;2023-09-19T07:59:17;2.60;;;2.40;;
2610;SDS011;5612;51.134;17.058;2023-09-19T08:01:49;2.60;;;2.40;;
2610;SDS011;5612;51.134;17.058;2023-09-19T08:04:18;2.40;;;2.20;;
2610;SDS011;5612;51.134;17.058;2023-09-19T08:06:48;2.10;;;1.90;;
2610;SDS011;5612;51.134;17.058;2023-09-19T08:09:18;2.00;;;1.90;;
2610;SDS011;5612;51.134;17.058;2023-09-19T08:11:51;4.87;;;2.30;;
2610;SDS011;5612;51.134;17.058;2023-09-19T08:14:20;2.50;;;2.20;;
2610;SDS011;5612;51.134;17.058;2023-09-19T08:16:53;2.43;;;2.30;;
2610;SDS011;5612;51.134;17.058;2023-09-19T08:19:25;3.13;;;2.80;;
2610;SDS011;5612;51.134;17.058;2023-09-19T08:21:56;2.50;;;1.97;;
2610;SDS011;5612;51.134;17.058;2023-09-19T08:24:28;2.13;;;1.80;;
2610;SDS011;5612;51.134;17.058;2023-09-19T08:26:58;5.33;;;2.73;;
2610;SDS011;5612;51.134;17.058;2023-09-19T08:29:26;2.27;;;2.13;;
2610;SDS011;5612;51.134;17.058;2023-09-19T08:31:57;2.13;;;2.03;;
2610;SDS011;5612;51.134;17.058;2023-09-19T08:34:26;3.73;;;2.20;;
2610;SDS011;5612;51.134;17.058;2023-09-19T08:37:01;2.33;;;2.13;;
2610;SDS011;5612;51.134;17.058;2023-09-19T08:39:29;2.90;;;2.47;;
2610;SDS011;5612;51.134;17.058;2023-09-19T08:42:01;3.73;;;2.87;;
2610;SDS011;5612;51.134;17.058;2023-09-19T08:44:36;2.60;;;2.23;;
2610;SDS011;5612;51.134;17.058;2023-09-19T08:47:18;2.50;;;2.30;;
2610;SDS011;5612;51.134;17.058;2023-09-19T08:50:04;2.23;;;2.13;;
2610;SDS011;5612;51.134;17.058;2023-09-19T08:52:41;2.17;;;1.97;;
2610;SDS011;5612;51.134;17.058;2023-09-19T08:55:11;2.33;;;2.23;;
2610;SDS011;5612;51.134;17.058;2023-09-19T08:57:49;2.40;;;1.90;;
2610;SDS011;5612;51.134;17.058;2023-09-19T09:00:20;2.63;;;2.20;;
2610;SDS011;5612;51.134;17.058;2023-09-19T09:02:51;2.27;;;2.07;;
2610;SDS011;5612;51.134;17.058;2023-09-19T09:05:21;2.17;;;2.07;;
2610;SDS011;5612;51.134;17.058;2023-09-19T09:07:51;2.37;;;1.80;;
2610;SDS011;5612;51.134;17.058;2023-09-19T09:10:23;2.60;;;2.40;;
2610;SDS011;5612;51.134;17.058;2023-09-19T09:12:52;2.30;;;2.07;;
2610;SDS011;5612;51.134;17.058;2023-09-19T09:15:22;2.33;;;2.13;;
2610;SDS011;5612;51.134;17.058;2023-09-19T09:17:53;2.70;;;2.50;;
2610;SDS011;5612;51.134;17.058;2023-09-19T09:20:22;2.33;;;2.13;;
2610;SDS011;5612;51.134;17.058;2023-09-19T09:22:51;1.93;;;1.83;;
2610;SDS011;5612;51.134;17.058;2023-09-19T09:25:22;2.23;;;2.13;;
2610;SDS011;5612;51.134;17.058;2023-09-19T09:28:00;4.43;;;2.30;;
2610;SDS011;5612;51.134;17.058;2023-09-19T09:30:33;4.50;;;1.90;;
2610;SDS011;5612;51.134;17.058;2023-09-19T09:33:11;2.07;;;1.80;;
2610;SDS011;5612;51.134;17.058;2023-09-19T09:35:49;2.80;;;1.97;;
2610;SDS011;5612;51.134;17.058;2023-09-19T09:38:20;1.50;;;1.40;;
2610;SDS011;5612;51.134;17.058;2023-09-19T09:40:55;6.73;;;4.40;;
2610;SDS011;5612;51.134;17.058;2023-09-19T09:43:29;4.00;;;2.67;;
2610;SDS011;5612;51.134;17.058;2023-09-19T09:46:12;1.80;;;1.70;;
2610;SDS011;5612;51.134;17.058;2023-09-19T09:49:13;3.20;;;2.93;;
2610;SDS011;5612;51.134;17.058;2023-09-19T09:52:00;4.63;;;3.33;;
2610;SDS011;5612;51.134;17.058;2023-09-19T09:54:39;3.20;;;1.77;;
2610;SDS011;5612;51.134;17.058;2023-09-19T09:57:26;2.17;;;2.00;;
2610;SDS011;5612;51.134;17.058;2023-09-19T09:59:57;3.77;;;1.83;;
2610;SDS011;5612;51.134;17.058;2023-09-19T10:02:44;3.00;;;1.90;;
2610;SDS011;5612;51.134;17.058;2023-09-19T10:05:16;1.70;;;1.60;;
2610;SDS011;5612;51.134;17.058;2023-09-19T10:07:54;1.90;;;1.80;;
2610;SDS011;5612;51.134;17.058;2023-09-19T10:10:31;3.07;;;1.67;;
2610;SDS011;5612;51.134;17.058;2023-09-19T10:13:20;1.90;;;1.67;;
2610;SDS011;5612;51.134;17.058;2023-09-19T10:15:54;1.73;;;1.63;;
2610;SDS011;5612;51.134;17.058;2023-09-19T10:18:25;2.80;;;1.93;;
2610;SDS011;5612;51.134;17.058;2023-09-19T10:20:58;2.03;;;1.93;;
2610;SDS011;5612;51.134;17.058;2023-09-19T10:24:03;1.90;;;1.80;;
2610;SDS011;5612;51.134;17.058;2023-09-19T10:26:36;2.80;;;1.70;;
2610;SDS011;5612;51.134;17.058;2023-09-19T10:29:06;1.90;;;1.80;;
2610;SDS011;5612;51.134;17.058;2023-09-19T10:31:37;2.00;;;1.67;;
2610;SDS011;5612;51.134;17.058;2023-09-19T10:34:08;4.10;;;1.60;;
2610;SDS011;5612;51.134;17.058;2023-09-19T10:36:42;1.73;;;1.63;;
2610;SDS011;5612;51.134;17.058;2023-09-19T10:39:14;2.43;;;1.93;;
2610;SDS011;5612;51.134;17.058;2023-09-19T10:41:49;2.03;;;1.93;;
2610;SDS011;5612;51.134;17.058;2023-09-19T10:44:21;2.20;;;2.00;;
2610;SDS011;5612;51.134;17.058;2023-09-19T10:46:52;3.40;;;3.20;;
2610;SDS011;5612;51.134;17.058;2023-09-19T10:49:21;2.53;;;1.63;;
2610;SDS011;5612;51.134;17.058;2023-09-19T10:51:53;1.97;;;1.60;;
2610;SDS011;5612;51.134;17.058;2023-09-19T10:54:26;1.80;;;1.67;;
2610;SDS011;5612;51.134;17.058;2023-09-19T10:56:59;4.93;;;1.60;;
2610;SDS011;5612;51.134;17.058;2023-09-19T10:59:32;1.20;;;1.10;;
2610;SDS011;5612;51.134;17.058;2023-09-19T11:04:50;1.67;;;1.57;;
2610;SDS011;5612;51.134;17.058;2023-09-19T11:07:23;4.27;;;1.83;;
2610;SDS011;5612;51.134;17.058;2023-09-19T11:09:55;1.63;;;1.30;;
2610;SDS011;5612;51.134;17.058;2023-09-19T11:18:53;1.60;;;1.50;;
2610;SDS011;5612;51.134;17.058;2023-09-19T11:21:42;1.97;;;1.80;;
2610;SDS011;5612;51.134;17.058;2023-09-19T11:24:32;1.50;;;1.40;;
2610;SDS011;5612;51.134;17.058;2023-09-19T11:27:11;1.43;;;1.30;;
2610;SDS011;5612;51.134;17.058;2023-09-19T11:29:40;3.83;;;1.17;;
2610;SDS011;5612;51.134;17.058;2023-09-19T11:32:09;1.60;;;1.30;;
2610;SDS011;5612;51.134;17.058;2023-09-19T11:34:46;1.50;;;1.50;;
2610;SDS011;5612;51.134;17.058;2023-09-19T11:40:28;1.48;;;1.38;;
2610;SDS011;5612;51.134;17.058;2023-09-19T11:42:57;1.48;;;1.20;;
2610;SDS011;5612;51.134;17.058;2023-09-19T11:48:32;1.73;;;1.38;;
2610;SDS011;5612;51.134;17.058;2023-09-19T11:51:17;1.63;;;1.25;;
2610;SDS011;5612;51.134;17.058;2023-09-19T11:53:55;1.50;;;1.30;;
2610;SDS011;5612;51.134;17.058;2023-09-19T11:56:28;1.03;;;1.03;;
2610;SDS011;5612;51.134;17.058;2023-09-19T11:58:59;1.67;;;1.50;;
2610;SDS011;5612;51.134;17.058;2023-09-19T12:01:31;2.50;;;1.27;;
2610;SDS011;5612;51.134;17.058;2023-09-19T12:04:02;0.90;;;0.90;;
2610;SDS011;5612;51.134;17.058;2023-09-19T12:06:32;1.33;;;0.97;;
2610;SDS011;5612;51.134;17.058;2023-09-19T12:09:03;1.40;;;1.30;;
2610;SDS011;5612;51.134;17.058;2023-09-19T12:11:42;1.02;;;1.02;;
2610;SDS011;5612;51.134;17.058;2023-09-19T12:14:14;1.55;;;1.38;;
2610;SDS011;5612;51.134;17.058;2023-09-19T12:16:56;1.92;;;1.30;;
2610;SDS011;5612;51.134;17.058;2023-09-19T12:19:28;1.13;;;1.13;;
2610;SDS011;5612;51.134;17.058;2023-09-19T12:21:57;1.13;;;1.00;;
2610;SDS011;5612;51.134;17.058;2023-09-19T12:24:31;1.33;;;1.23;;
2610;SDS011;5612;51.134;17.058;2023-09-19T12:27:05;0.95;;;0.93;;
2610;SDS011;5612;51.134;17.058;2023-09-19T12:29:42;4.07;;;1.60;;
2610;SDS011;5612;51.134;17.058;2023-09-19T12:32:13;1.67;;;1.10;;
2610;SDS011;5612;51.134;17.058;2023-09-19T12:34:50;1.30;;;1.02;;
2610;SDS011;5612;51.134;17.058;2023-09-19T12:37:21;1.48;;;1.38;;
2610;SDS011;5612;51.134;17.058;2023-09-19T12:40:03;1.30;;;1.20;;
2610;SDS011;5612;51.134;17.058;2023-09-19T12:42:46;1.27;;;1.15;;
2610;SDS011;5612;51.134;17.058;2023-09-19T12:45:17;1.50;;;1.40;;
2610;SDS011;5612;51.134;17.058;2023-09-19T12:50:59;6.20;;;1.90;;
2610;SDS011;5612;51.134;17.058;2023-09-19T12:53:33;1.30;;;1.20;;
2610;SDS011;5612;51.134;17.058;2023-09-19T12:56:08;1.13;;;1.13;;
2610;SDS011;5612;51.134;17.058;2023-09-19T12:58:50;1.50;;;1.40;;
2610;SDS011;5612;51.134;17.058;2023-09-19T13:01:21;1.08;;;1.08;;
2610;SDS011;5612;51.134;17.058;2023-09-19T13:04:11;1.45;;;1.40;;
2610;SDS011;5612;51.134;17.058;2023-09-19T13:06:48;0.98;;;0.98;;
2610;SDS011;5612;51.134;17.058;2023-09-19T13:09:18;1.95;;;1.00;;
2610;SDS011;5612;51.134;17.058;2023-09-19T13:11:48;1.42;;;1.33;;
2610;SDS011;5612;51.134;17.058;2023-09-19T13:14:20;2.00;;;1.85;;
2610;SDS011;5612;51.134;17.058;2023-09-19T13:16:57;1.42;;;1.33;;
2610;SDS011;5612;51.134;17.058;2023-09-19T13:19:38;1.95;;;0.90;;
2610;SDS011;5612;51.134;17.058;2023-09-19T13:25:05;1.65;;;1.08;;
2610;SDS011;5612;51.134;17.058;2023-09-19T13:27:41;1.67;;;1.58;;
2610;SDS011;5612;51.134;17.058;2023-09-19T13:30:14;1.35;;;1.20;;
2610;SDS011;5612;51.134;17.058;2023-09-19T13:32:43;1.65;;;1.00;;
2610;SDS011;5612;51.134;17.058;2023-09-19T13:35:14;1.17;;;1.00;;
2610;SDS011;5612;51.134;17.058;2023-09-19T13:37:43;1.40;;;1.30;;
2610;SDS011;5612;51.134;17.058;2023-09-19T13:40:18;1.30;;;1.20;;
2610;SDS011;5612;51.134;17.058;2023-09-19T13:42:48;4.70;;;1.58;;
2610;SDS011;5612;51.134;17.058;2023-09-19T13:45:21;1.60;;;1.15;;
2610;SDS011;5612;51.134;17.058;2023-09-19T13:47:51;1.35;;;1.25;;
2610;SDS011;5612;51.134;17.058;2023-09-19T13:50:22;0.80;;;0.80;;
2610;SDS011;5612;51.134;17.058;2023-09-19T13:52:55;1.25;;;1.15;;
2610;SDS011;5612;51.134;17.058;2023-09-19T13:55:24;1.23;;;0.93;;
2610;SDS011;5612;51.134;17.058;2023-09-19T13:57:53;1.67;;;1.48;;
2610;SDS011;5612;51.134;17.058;2023-09-19T14:00:24;0.80;;;0.80;;
2610;SDS011;5612;51.134;17.058;2023-09-19T14:02:54;1.10;;;1.10;;
2610;SDS011;5612;51.134;17.058;2023-09-19T14:05:23;1.40;;;1.00;;
2610;SDS011;5612;51.134;17.058;2023-09-19T14:07:55;1.40;;;1.30;;
2610;SDS011;5612;51.134;17.058;2023-09-19T14:10:24;3.30;;;1.00;;
2610;SDS011;5612;51.134;17.058;2023-09-19T14:12:54;1.40;;;1.35;;
2610;SDS011;5612;51.134;17.058;2023-09-19T14:15:25;1.38;;;1.33;;
2610;SDS011;5612;51.134;17.058;2023-09-19T14:17:57;1.40;;;1.30;;
2610;SDS011;5612;51.134;17.058;2023-09-19T14:20:28;2.92;;;1.73;;
2610;SDS011;5612;51.134;17.058;2023-09-19T14:22:57;1.48;;;1.38;;
2610;SDS011;5612;51.134;17.058;2023-09-19T14:25:27;1.60;;;1.50;;
2610;SDS011;5612;51.134;17.058;2023-09-19T14:27:57;0.90;;;0.90;;
2610;SDS011;5612;51.134;17.058;2023-09-19T14:30:29;1.45;;;1.35;;
2610;SDS011;5612;51.134;17.058;2023-09-19T14:32:58;2.30;;;1.27;;
2610;SDS011;5612;51.134;17.058;2023-09-19T14:35:28;3.20;;;1.55;;
2610;SDS011;5612;51.134;17.058;2023-09-19T14:37:57;2.95;;;1.67;;
2610;SDS011;5612;51.134;17.058;2023-09-19T14:40:26;1.60;;;1.50;;
2610;SDS011;5612;51.134;17.058;2023-09-19T14:42:55;1.10;;;1.00;;
2610;SDS011;5612;51.134;17.058;2023-09-19T14:45:24;1.30;;;1.20;;
2610;SDS011;5612;51.134;17.058;2023-09-19T14:47:56;1.70;;;1.17;;
2610;SDS011;5612;51.134;17.058;2023-09-19T14:50:27;1.70;;;0.93;;
2610;SDS011;5612;51.134;17.058;2023-09-19T14:52:56;1.10;;;1.07;;
2610;SDS011;5612;51.134;17.058;2023-09-19T14:55:29;1.40;;;1.30;;
2610;SDS011;5612;51.134;17.058;2023-09-19T14:58:05;1.13;;;1.10;;
2610;SDS011;5612;51.134;17.058;2023-09-19T15:00:34;1.27;;;1.17;;
2610;SDS011;5612;51.134;17.058;2023-09-19T15:03:05;1.43;;;1.33;;
2610;SDS011;5612;51.134;17.058;2023-09-19T15:05:35;1.30;;;1.20;;
2610;SDS011;5612;51.134;17.058;2023-09-19T15:08:05;6.20;;;1.50;;
2610;SDS011;5612;51.134;17.058;2023-09-19T15:10:35;1.13;;;1.03;;
2610;SDS011;5612;51.134;17.058;2023-09-19T15:13:04;2.70;;;1.60;;
2610;SDS011;5612;51.134;17.058;2023-09-19T15:15:34;3.13;;;1.40;;
2610;SDS011;5612;51.134;17.058;2023-09-19T15:18:06;3.77;;;1.47;;
2610;SDS011;5612;51.134;17.058;2023-09-19T15:20:36;1.30;;;1.20;;
2610;SDS011;5612;51.134;17.058;2023-09-19T15:23:10;7.10;;;1.37;;
2610;SDS011;5612;51.134;17.058;2023-09-19T15:25:47;1.17;;;1.07;;
2610;SDS011;5612;51.134;17.058;2023-09-19T15:28:17;1.77;;;1.47;;
2610;SDS011;5612;51.134;17.058;2023-09-19T15:30:50;1.50;;;1.40;;
2610;SDS011;5612;51.134;17.058;2023-09-19T15:33:27;1.50;;;1.10;;
2610;SDS011;5612;51.134;17.058;2023-09-19T15:36:01;1.80;;;1.40;;
2610;SDS011;5612;51.134;17.058;2023-09-19T15:41:30;1.10;;;1.07;;
2610;SDS011;5612;51.134;17.058;2023-09-19T15:44:02;1.83;;;1.43;;
2610;SDS011;5612;51.134;17.058;2023-09-19T15:46:34;1.87;;;1.77;;
2610;SDS011;5612;51.134;17.058;2023-09-19T15:49:11;1.40;;;1.30;;
2610;SDS011;5612;51.134;17.058;2023-09-19T15:51:41;1.30;;;1.20;;
2610;SDS011;5612;51.134;17.058;2023-09-19T15:54:12;1.60;;;1.07;;